sensor_id;sensor_type;location;lat;lon;timestamp;pressure;altitude;pressure_sealevel;temperature;humidity
67987;BME280;54767;53.800;15.956;2023-03-23T00:01:29;99287.46;;;10.51;72.61
67987;BME280;54767;53.800;15.956;2023-03-23T00:03:58;99289.40;;;10.50;72.47
67987;BME280;54767;53.800;15.956;2023-03-23T00:06:27;99288.88;;;10.49;72.27
67987;BME280;54767;53.800;15.956;2023-03-23T00:08:54;99281.54;;;10.50;72.35
67987;BME280;54767;53.800;15.956;2023-03-23T00:11:28;99278.73;;;10.49;72.43
67987;BME280;54767;53.800;15.956;2023-03-23T00:13:56;99279.97;;;10.48;72.32
67987;BME280;54767;53.800;15.956;2023-03-23T00:16:32;99283.36;;;10.44;72.37
67987;BME280;54767;53.800;15.956;2023-03-23T00:19:05;99282.69;;;10.41;72.48
67987;BME280;54767;53.800;15.956;2023-03-23T00:21:35;99284.64;;;10.39;72.32
67987;BME280;54767;53.800;15.956;2023-03-23T00:24:08;99279.75;;;10.39;72.46
67987;BME280;54767;53.800;15.956;2023-03-23T00:26:38;99272.02;;;10.40;72.42
67987;BME280;54767;53.800;15.956;2023-03-23T00:29:20;99271.48;;;10.43;72.51
67987;BME280;54767;53.800;15.956;2023-03-23T00:31:50;99264.66;;;10.43;72.47
67987;BME280;54767;53.800;15.956;2023-03-23T00:34:22;99260.14;;;10.41;72.33
67987;BME280;54767;53.800;15.956;2023-03-23T00:36:53;99250.71;;;10.38;72.32
67987;BME280;54767;53.800;15.956;2023-03-23T00:39:25;99249.54;;;10.36;72.51
67987;BME280;54767;53.800;15.956;2023-03-23T00:41:53;99247.11;;;10.33;72.06
67987;BME280;54767;53.800;15.956;2023-03-23T00:44:28;99239.29;;;10.30;72.45
67987;BME280;54767;53.800;15.956;2023-03-23T00:46:57;99228.45;;;10.29;72.31
67987;BME280;54767;53.800;15.956;2023-03-23T00:49:25;99223.57;;;10.26;72.46
67987;BME280;54767;53.800;15.956;2023-03-23T00:51:55;99210.83;;;10.24;72.43
67987;BME280;54767;53.800;15.956;2023-03-23T00:54:24;99212.23;;;10.23;72.39
67987;BME280;54767;53.800;15.956;2023-03-23T00:56:52;99216.64;;;10.21;72.38
67987;BME280;54767;53.800;15.956;2023-03-23T00:59:21;99218.77;;;10.19;72.37
67987;BME280;54767;53.800;15.956;2023-03-23T01:01:49;99221.94;;;10.17;72.40
67987;BME280;54767;53.800;15.956;2023-03-23T01:04:16;99217.76;;;10.16;72.49
67987;BME280;54767;53.800;15.956;2023-03-23T01:06:44;99213.71;;;10.18;72.38
67987;BME280;54767;53.800;15.956;2023-03-23T01:09:15;99206.88;;;10.19;72.48
67987;BME280;54767;53.800;15.956;2023-03-23T01:11:44;99206.33;;;10.20;72.58
67987;BME280;54767;53.800;15.956;2023-03-23T01:14:13;99212.65;;;10.19;72.54
67987;BME280;54767;53.800;15.956;2023-03-23T01:16:41;99211.60;;;10.18;72.38
67987;BME280;54767;53.800;15.956;2023-03-23T01:19:09;99209.52;;;10.16;72.44
67987;BME280;54767;53.800;15.956;2023-03-23T01:21:36;99214.61;;;10.15;72.55
67987;BME280;54767;53.800;15.956;2023-03-23T01:24:04;99205.71;;;10.14;72.44
67987;BME280;54767;53.800;15.956;2023-03-23T01:26:32;99204.14;;;10.14;72.52
67987;BME280;54767;53.800;15.956;2023-03-23T01:28:59;99199.23;;;10.14;72.35
67987;BME280;54767;53.800;15.956;2023-03-23T01:31:26;99198.02;;;10.13;72.42
67987;BME280;54767;53.800;15.956;2023-03-23T01:33:54;99192.95;;;10.12;72.47
67987;BME280;54767;53.800;15.956;2023-03-23T01:36:25;99186.71;;;10.10;72.35
67987;BME280;54767;53.800;15.956;2023-03-23T01:38:53;99182.36;;;10.09;72.33
67987;BME280;54767;53.800;15.956;2023-03-23T01:41:21;99188.15;;;10.07;72.64
67987;BME280;54767;53.800;15.956;2023-03-23T01:46:21;99189.56;;;10.06;72.55
67987;BME280;54767;53.800;15.956;2023-03-23T01:48:50;99191.33;;;10.05;72.57
67987;BME280;54767;53.800;15.956;2023-03-23T01:51:18;99191.17;;;10.03;72.66
67987;BME280;54767;53.800;15.956;2023-03-23T01:53:59;99190.16;;;10.01;72.45
67987;BME280;54767;53.800;15.956;2023-03-23T01:56:33;99191.25;;;9.97;72.59
67987;BME280;54767;53.800;15.956;2023-03-23T01:59:04;99189.86;;;9.95;72.61
67987;BME280;54767;53.800;15.956;2023-03-23T02:01:32;99190.40;;;9.95;72.58
67987;BME280;54767;53.800;15.956;2023-03-23T02:04:04;99187.75;;;9.97;72.65
67987;BME280;54767;53.800;15.956;2023-03-23T02:06:31;99184.42;;;9.98;72.74
67987;BME280;54767;53.800;15.956;2023-03-23T02:08:59;99179.70;;;9.97;72.87
67987;BME280;54767;53.800;15.956;2023-03-23T02:11:27;99171.17;;;9.95;72.81
67987;BME280;54767;53.800;15.956;2023-03-23T02:13:54;99173.98;;;9.93;72.89
67987;BME280;54767;53.800;15.956;2023-03-23T02:25:05;99156.33;;;9.94;72.89
67987;BME280;54767;53.800;15.956;2023-03-23T02:30:24;99160.14;;;9.97;72.95
67987;BME280;54767;53.800;15.956;2023-03-23T02:36:23;99158.23;;;9.95;72.95
67987;BME280;54767;53.800;15.956;2023-03-23T02:40:06;99151.59;;;9.95;73.03
67987;BME280;54767;53.800;15.956;2023-03-23T02:42:09;99145.11;;;9.96;72.93
67987;BME280;54767;53.800;15.956;2023-03-23T02:44:40;99138.47;;;9.97;73.01
67987;BME280;54767;53.800;15.956;2023-03-23T02:47:15;99133.38;;;9.98;72.99
67987;BME280;54767;53.800;15.956;2023-03-23T02:49:44;99130.94;;;9.99;73.16
67987;BME280;54767;53.800;15.956;2023-03-23T02:52:17;99124.30;;;9.99;72.96
67987;BME280;54767;53.800;15.956;2023-03-23T02:54:47;99130.77;;;9.98;73.04
67987;BME280;54767;53.800;15.956;2023-03-23T02:57:15;99136.52;;;9.99;73.15
67987;BME280;54767;53.800;15.956;2023-03-23T02:59:43;99141.73;;;10.01;73.07
67987;BME280;54767;53.800;15.956;2023-03-23T03:02:14;99137.17;;;10.02;73.01
67987;BME280;54767;53.800;15.956;2023-03-23T03:04:49;99125.96;;;10.03;73.00
67987;BME280;54767;53.800;15.956;2023-03-23T03:12:36;99109.36;;;10.03;73.18
67987;BME280;54767;53.800;15.956;2023-03-23T03:17:53;99109.16;;;10.05;73.17
67987;BME280;54767;53.800;15.956;2023-03-23T03:20:24;99098.13;;;10.06;72.95
67987;BME280;54767;53.800;15.956;2023-03-23T03:22:53;99096.20;;;10.06;73.06
67987;BME280;54767;53.800;15.956;2023-03-23T03:25:22;99090.81;;;10.05;72.99
67987;BME280;54767;53.800;15.956;2023-03-23T03:27:50;99089.07;;;10.04;73.02
67987;BME280;54767;53.800;15.956;2023-03-23T03:30:23;99083.13;;;10.04;73.10
67987;BME280;54767;53.800;15.956;2023-03-23T03:32:53;99084.32;;;10.06;72.87
67987;BME280;54767;53.800;15.956;2023-03-23T03:35:22;99086.74;;;10.08;73.11
67987;BME280;54767;53.800;15.956;2023-03-23T03:37:50;99085.14;;;10.10;72.98
67987;BME280;54767;53.800;15.956;2023-03-23T03:40:21;99082.50;;;10.11;73.24
67987;BME280;54767;53.800;15.956;2023-03-23T03:42:48;99076.04;;;10.11;73.08
67987;BME280;54767;53.800;15.956;2023-03-23T03:45:17;99081.61;;;10.12;72.92
67987;BME280;54767;53.800;15.956;2023-03-23T03:47:45;99078.47;;;10.12;73.13
67987;BME280;54767;53.800;15.956;2023-03-23T03:50:12;99069.02;;;10.13;72.81
67987;BME280;54767;53.800;15.956;2023-03-23T03:52:40;99063.40;;;10.14;72.80
67987;BME280;54767;53.800;15.956;2023-03-23T03:55:08;99048.53;;;10.15;72.70
67987;BME280;54767;53.800;15.956;2023-03-23T03:57:37;99037.86;;;10.16;72.83
67987;BME280;54767;53.800;15.956;2023-03-23T04:00:07;99039.58;;;10.17;72.96
67987;BME280;54767;53.800;15.956;2023-03-23T04:02:45;99047.30;;;10.16;72.73
67987;BME280;54767;53.800;15.956;2023-03-23T04:05:18;99050.10;;;10.16;72.93
67987;BME280;54767;53.800;15.956;2023-03-23T04:07:46;99057.05;;;10.17;72.67
67987;BME280;54767;53.800;15.956;2023-03-23T04:10:16;99050.04;;;10.19;72.78
67987;BME280;54767;53.800;15.956;2023-03-23T04:12:43;99047.92;;;10.20;72.63
67987;BME280;54767;53.800;15.956;2023-03-23T04:15:10;99046.34;;;10.21;72.52
67987;BME280;54767;53.800;15.956;2023-03-23T04:17:37;99038.29;;;10.22;72.61
67987;BME280;54767;53.800;15.956;2023-03-23T04:20:05;99038.48;;;10.21;72.75
67987;BME280;54767;53.800;15.956;2023-03-23T04:22:35;99046.16;;;10.21;72.52
67987;BME280;54767;53.800;15.956;2023-03-23T04:25:03;99053.50;;;10.22;72.56
67987;BME280;54767;53.800;15.956;2023-03-23T04:27:33;99063.96;;;10.24;72.54
67987;BME280;54767;53.800;15.956;2023-03-23T04:30:01;99065.34;;;10.25;72.52
67987;BME280;54767;53.800;15.956;2023-03-23T04:32:29;99063.23;;;10.25;72.62
67987;BME280;54767;53.800;15.956;2023-03-23T04:34:58;99059.21;;;10.25;72.55
67987;BME280;54767;53.800;15.956;2023-03-23T04:37:27;99062.04;;;10.24;72.52
67987;BME280;54767;53.800;15.956;2023-03-23T04:39:56;99061.19;;;10.23;72.49
67987;BME280;54767;53.800;15.956;2023-03-23T04:42:41;99056.98;;;10.23;72.57
67987;BME280;54767;53.800;15.956;2023-03-23T04:45:17;99060.46;;;10.23;72.49
67987;BME280;54767;53.800;15.956;2023-03-23T04:47:50;99062.73;;;10.24;72.58
67987;BME280;54767;53.800;15.956;2023-03-23T04:50:21;99052.78;;;10.23;72.57
67987;BME280;54767;53.800;15.956;2023-03-23T04:52:51;99054.19;;;10.23;72.51
67987;BME280;54767;53.800;15.956;2023-03-23T04:55:18;99061.55;;;10.22;72.67
67987;BME280;54767;53.800;15.956;2023-03-23T04:57:47;99059.96;;;10.21;72.65
67987;BME280;54767;53.800;15.956;2023-03-23T05:00:15;99062.25;;;10.22;72.68
67987;BME280;54767;53.800;15.956;2023-03-23T05:02:44;99068.37;;;10.22;72.55
67987;BME280;54767;53.800;15.956;2023-03-23T05:05:14;99076.04;;;10.23;72.68
67987;BME280;54767;53.800;15.956;2023-03-23T05:07:41;99073.60;;;10.22;72.93
67987;BME280;54767;53.800;15.956;2023-03-23T05:10:10;99075.89;;;10.21;72.90
67987;BME280;54767;53.800;15.956;2023-03-23T05:12:38;99080.46;;;10.19;73.06
67987;BME280;54767;53.800;15.956;2023-03-23T05:15:07;99076.14;;;10.16;73.23
67987;BME280;54767;53.800;15.956;2023-03-23T05:17:34;99066.89;;;10.14;73.49
67987;BME280;54767;53.800;15.956;2023-03-23T05:20:04;99069.02;;;10.12;73.56
67987;BME280;54767;53.800;15.956;2023-03-23T05:22:34;99059.08;;;10.11;73.75
67987;BME280;54767;53.800;15.956;2023-03-23T05:25:03;99066.08;;;10.11;73.66
67987;BME280;54767;53.800;15.956;2023-03-23T05:27:31;99065.74;;;10.09;73.76
67987;BME280;54767;53.800;15.956;2023-03-23T05:29:59;99067.52;;;10.08;73.88
67987;BME280;54767;53.800;15.956;2023-03-23T05:32:28;99068.08;;;10.05;74.27
67987;BME280;54767;53.800;15.956;2023-03-23T05:34:59;99067.59;;;10.03;74.28
67987;BME280;54767;53.800;15.956;2023-03-23T05:37:27;99071.29;;;10.01;74.59
67987;BME280;54767;53.800;15.956;2023-03-23T05:39:59;99068.14;;;10.01;74.57
67987;BME280;54767;53.800;15.956;2023-03-23T05:42:33;99065.69;;;10.01;74.83
67987;BME280;54767;53.800;15.956;2023-03-23T05:45:04;99067.63;;;10.01;75.11
67987;BME280;54767;53.800;15.956;2023-03-23T05:47:32;99066.58;;;10.01;75.23
67987;BME280;54767;53.800;15.956;2023-03-23T05:49:59;99063.06;;;10.02;75.49
67987;BME280;54767;53.800;15.956;2023-03-23T05:52:27;99063.05;;;10.03;75.60
67987;BME280;54767;53.800;15.956;2023-03-23T05:54:54;99067.08;;;10.02;75.47
67987;BME280;54767;53.800;15.956;2023-03-23T05:57:21;99064.61;;;10.03;75.75
67987;BME280;54767;53.800;15.956;2023-03-23T05:59:48;99063.38;;;10.05;75.79
67987;BME280;54767;53.800;15.956;2023-03-23T06:02:16;99062.13;;;10.06;75.99
67987;BME280;54767;53.800;15.956;2023-03-23T06:04:43;99060.55;;;10.08;76.32
67987;BME280;54767;53.800;15.956;2023-03-23T06:07:11;99057.51;;;10.11;76.29
67987;BME280;54767;53.800;15.956;2023-03-23T06:09:41;99060.27;;;10.13;76.42
67987;BME280;54767;53.800;15.956;2023-03-23T06:12:09;99056.75;;;10.14;76.41
67987;BME280;54767;53.800;15.956;2023-03-23T06:14:37;99056.59;;;10.13;76.30
67987;BME280;54767;53.800;15.956;2023-03-23T06:17:04;99050.66;;;10.12;76.49
67987;BME280;54767;53.800;15.956;2023-03-23T06:19:32;99051.94;;;10.09;76.48
67987;BME280;54767;53.800;15.956;2023-03-23T06:22:01;99038.71;;;10.05;76.50
67987;BME280;54767;53.800;15.956;2023-03-23T06:24:29;99032.78;;;10.04;76.66
67987;BME280;54767;53.800;15.956;2023-03-23T06:27:01;99026.67;;;10.03;76.62
67987;BME280;54767;53.800;15.956;2023-03-23T06:29:28;99027.92;;;10.02;76.77
67987;BME280;54767;53.800;15.956;2023-03-23T06:31:58;99030.56;;;10.02;76.90
67987;BME280;54767;53.800;15.956;2023-03-23T06:34:27;99028.48;;;10.01;76.87
67987;BME280;54767;53.800;15.956;2023-03-23T06:36:55;99020.96;;;10.00;76.91
67987;BME280;54767;53.800;15.956;2023-03-23T06:39:22;99012.22;;;10.00;77.41
67987;BME280;54767;53.800;15.956;2023-03-23T06:41:50;99012.73;;;10.00;77.25
67987;BME280;54767;53.800;15.956;2023-03-23T06:44:17;99019.05;;;9.99;77.44
67987;BME280;54767;53.800;15.956;2023-03-23T06:46:44;99022.92;;;9.98;77.73
67987;BME280;54767;53.800;15.956;2023-03-23T06:49:12;99023.98;;;9.96;77.84
67987;BME280;54767;53.800;15.956;2023-03-23T06:51:39;99018.94;;;9.94;77.73
67987;BME280;54767;53.800;15.956;2023-03-23T06:54:06;99021.73;;;9.95;78.07
67987;BME280;54767;53.800;15.956;2023-03-23T06:56:34;99027.32;;;9.96;78.09
67987;BME280;54767;53.800;15.956;2023-03-23T06:59:01;99030.61;;;9.99;78.24
67987;BME280;54767;53.800;15.956;2023-03-23T07:01:28;99032.52;;;9.99;78.31
67987;BME280;54767;53.800;15.956;2023-03-23T07:03:55;99039.00;;;9.98;78.31
67987;BME280;54767;53.800;15.956;2023-03-23T07:06:24;99042.15;;;9.97;78.46
67987;BME280;54767;53.800;15.956;2023-03-23T07:08:51;99046.17;;;9.99;78.95
67987;BME280;54767;53.800;15.956;2023-03-23T07:11:19;99048.59;;;10.00;78.99
67987;BME280;54767;53.800;15.956;2023-03-23T07:13:46;99056.25;;;10.00;78.66
67987;BME280;54767;53.800;15.956;2023-03-23T07:16:13;99057.48;;;10.00;78.96
67987;BME280;54767;53.800;15.956;2023-03-23T07:18:40;99061.16;;;10.01;78.97
67987;BME280;54767;53.800;15.956;2023-03-23T07:21:08;99064.00;;;9.98;78.98
67987;BME280;54767;53.800;15.956;2023-03-23T07:23:35;99068.89;;;9.97;79.07
67987;BME280;54767;53.800;15.956;2023-03-23T07:26:02;99070.83;;;9.97;79.40
67987;BME280;54767;53.800;15.956;2023-03-23T07:28:30;99068.90;;;9.97;79.46
67987;BME280;54767;53.800;15.956;2023-03-23T07:30:58;99074.13;;;9.98;79.56
67987;BME280;54767;53.800;15.956;2023-03-23T07:33:26;99072.34;;;10.01;79.59
67987;BME280;54767;53.800;15.956;2023-03-23T07:35:53;99074.93;;;10.03;79.50
67987;BME280;54767;53.800;15.956;2023-03-23T07:38:20;99076.30;;;10.05;79.73
67987;BME280;54767;53.800;15.956;2023-03-23T07:40:48;99076.45;;;10.07;79.64
67987;BME280;54767;53.800;15.956;2023-03-23T07:43:15;99066.65;;;10.08;79.89
67987;BME280;54767;53.800;15.956;2023-03-23T07:45:42;99076.98;;;10.07;79.85
67987;BME280;54767;53.800;15.956;2023-03-23T07:48:09;99078.71;;;10.07;79.88
67987;BME280;54767;53.800;15.956;2023-03-23T07:50:36;99078.02;;;10.07;79.86
67987;BME280;54767;53.800;15.956;2023-03-23T07:53:04;99079.59;;;10.07;80.02
67987;BME280;54767;53.800;15.956;2023-03-23T07:55:31;99079.21;;;10.08;79.89
67987;BME280;54767;53.800;15.956;2023-03-23T07:57:59;99082.36;;;10.08;79.90
67987;BME280;54767;53.800;15.956;2023-03-23T08:00:26;99079.73;;;10.09;79.93
67987;BME280;54767;53.800;15.956;2023-03-23T08:02:55;99082.35;;;10.09;80.10
67987;BME280;54767;53.800;15.956;2023-03-23T08:05:24;99083.08;;;10.08;79.99
67987;BME280;54767;53.800;15.956;2023-03-23T08:07:54;99078.72;;;10.07;80.12
67987;BME280;54767;53.800;15.956;2023-03-23T08:10:22;99080.85;;;10.05;80.20
67987;BME280;54767;53.800;15.956;2023-03-23T08:12:52;99078.23;;;10.05;80.26
67987;BME280;54767;53.800;15.956;2023-03-23T08:15:19;99078.05;;;10.05;80.49
67987;BME280;54767;53.800;15.956;2023-03-23T08:17:49;99078.94;;;10.04;80.57
67987;BME280;54767;53.800;15.956;2023-03-23T08:20:18;99083.98;;;10.06;80.56
67987;BME280;54767;53.800;15.956;2023-03-23T08:22:50;99083.27;;;10.07;80.61
67987;BME280;54767;53.800;15.956;2023-03-23T08:25:20;99086.58;;;10.08;80.63
67987;BME280;54767;53.800;15.956;2023-03-23T08:27:47;99083.20;;;10.11;80.69
67987;BME280;54767;53.800;15.956;2023-03-23T08:30:17;99085.45;;;10.13;80.93
67987;BME280;54767;53.800;15.956;2023-03-23T08:32:46;99083.14;;;10.15;80.73
67987;BME280;54767;53.800;15.956;2023-03-23T08:35:14;99085.05;;;10.16;80.79
67987;BME280;54767;53.800;15.956;2023-03-23T08:37:43;99081.36;;;10.17;80.68
67987;BME280;54767;53.800;15.956;2023-03-23T08:40:14;99078.73;;;10.18;80.92
67987;BME280;54767;53.800;15.956;2023-03-23T08:42:42;99080.45;;;10.19;80.90
67987;BME280;54767;53.800;15.956;2023-03-23T08:45:12;99076.23;;;10.22;81.05
67987;BME280;54767;53.800;15.956;2023-03-23T08:47:42;99076.38;;;10.23;81.07
67987;BME280;54767;53.800;15.956;2023-03-23T08:50:14;99078.27;;;10.26;81.09
67987;BME280;54767;53.800;15.956;2023-03-23T08:52:41;99085.79;;;10.28;81.18
67987;BME280;54767;53.800;15.956;2023-03-23T08:55:10;99083.51;;;10.29;80.95
67987;BME280;54767;53.800;15.956;2023-03-23T08:57:38;99085.56;;;10.30;81.42
67987;BME280;54767;53.800;15.956;2023-03-23T09:00:07;99089.75;;;10.31;81.31
67987;BME280;54767;53.800;15.956;2023-03-23T09:02:49;99086.77;;;10.33;81.35
67987;BME280;54767;53.800;15.956;2023-03-23T09:05:19;99091.11;;;10.34;81.54
67987;BME280;54767;53.800;15.956;2023-03-23T09:07:49;99093.84;;;10.38;81.52
67987;BME280;54767;53.800;15.956;2023-03-23T09:10:17;99094.17;;;10.39;81.47
67987;BME280;54767;53.800;15.956;2023-03-23T09:12:46;99093.46;;;10.40;81.59
67987;BME280;54767;53.800;15.956;2023-03-23T09:15:16;99092.74;;;10.41;81.53
67987;BME280;54767;53.800;15.956;2023-03-23T09:17:48;99093.27;;;10.42;81.67
67987;BME280;54767;53.800;15.956;2023-03-23T09:20:19;99098.68;;;10.42;81.49
67987;BME280;54767;53.800;15.956;2023-03-23T09:22:50;99094.09;;;10.44;81.61
67987;BME280;54767;53.800;15.956;2023-03-23T09:25:22;99098.29;;;10.45;81.69
67987;BME280;54767;53.800;15.956;2023-03-23T09:27:51;99093.36;;;10.46;81.68
67987;BME280;54767;53.800;15.956;2023-03-23T09:30:20;99094.56;;;10.48;81.64
67987;BME280;54767;53.800;15.956;2023-03-23T09:32:47;99098.23;;;10.49;81.79
67987;BME280;54767;53.800;15.956;2023-03-23T09:35:15;99098.55;;;10.51;81.80
67987;BME280;54767;53.800;15.956;2023-03-23T09:37:44;99098.66;;;10.54;81.75
67987;BME280;54767;53.800;15.956;2023-03-23T09:40:15;99095.67;;;10.55;81.69
67987;BME280;54767;53.800;15.956;2023-03-23T09:46:02;99097.41;;;10.56;81.81
67987;BME280;54767;53.800;15.956;2023-03-23T09:51:24;99086.48;;;10.60;82.04
67987;BME280;54767;53.800;15.956;2023-03-23T09:54:00;99065.45;;;10.63;81.90
67987;BME280;54767;53.800;15.956;2023-03-23T09:56:31;99066.13;;;10.64;82.02
67987;BME280;54767;53.800;15.956;2023-03-23T10:01:47;99081.99;;;10.67;81.91
67987;BME280;54767;53.800;15.956;2023-03-23T10:07:21;99095.75;;;10.72;82.13
67987;BME280;54767;53.800;15.956;2023-03-23T10:09:56;99094.15;;;10.73;81.96
67987;BME280;54767;53.800;15.956;2023-03-23T10:12:39;99096.20;;;10.75;82.21
67987;BME280;54767;53.800;15.956;2023-03-23T10:15:33;99091.64;;;10.76;82.25
67987;BME280;54767;53.800;15.956;2023-03-23T10:20:57;99074.64;;;10.78;82.12
67987;BME280;54767;53.800;15.956;2023-03-23T10:29:04;99075.55;;;10.86;82.30
67987;BME280;54767;53.800;15.956;2023-03-23T10:31:42;99065.83;;;10.92;82.48
67987;BME280;54767;53.800;15.956;2023-03-23T10:34:17;99070.45;;;10.97;82.60
67987;BME280;54767;53.800;15.956;2023-03-23T10:37:01;99072.60;;;11.04;82.72
67987;BME280;54767;53.800;15.956;2023-03-23T10:39:38;99071.11;;;11.09;82.47
67987;BME280;54767;53.800;15.956;2023-03-23T10:42:08;99067.21;;;11.11;82.29
67987;BME280;54767;53.800;15.956;2023-03-23T10:44:36;99067.70;;;11.13;82.32
67987;BME280;54767;53.800;15.956;2023-03-23T10:47:06;99065.39;;;11.15;82.61
67987;BME280;54767;53.800;15.956;2023-03-23T10:49:55;99068.69;;;11.16;82.45
67987;BME280;54767;53.800;15.956;2023-03-23T10:52:39;99064.23;;;11.20;82.71
67987;BME280;54767;53.800;15.956;2023-03-23T10:55:16;99063.63;;;11.25;82.77
67987;BME280;54767;53.800;15.956;2023-03-23T11:00:29;99058.27;;;11.39;83.35
67987;BME280;54767;53.800;15.956;2023-03-23T11:03:03;99059.38;;;11.44;83.07
67987;BME280;54767;53.800;15.956;2023-03-23T11:05:43;99062.77;;;11.49;83.07
67987;BME280;54767;53.800;15.956;2023-03-23T11:08:21;99057.90;;;11.57;83.05
67987;BME280;54767;53.800;15.956;2023-03-23T11:10:56;99059.34;;;11.63;82.76
67987;BME280;54767;53.800;15.956;2023-03-23T11:13:31;99056.27;;;11.67;82.84
67987;BME280;54767;53.800;15.956;2023-03-23T11:15:59;99055.44;;;11.73;82.81
67987;BME280;54767;53.800;15.956;2023-03-23T11:18:41;99060.55;;;11.80;82.69
67987;BME280;54767;53.800;15.956;2023-03-23T11:21:12;99059.92;;;11.85;82.29
67987;BME280;54767;53.800;15.956;2023-03-23T11:23:42;99058.35;;;11.86;82.09
67987;BME280;54767;53.800;15.956;2023-03-23T11:28:46;99052.39;;;11.94;82.39
67987;BME280;54767;53.800;15.956;2023-03-23T11:31:17;99050.50;;;12.00;82.37
67987;BME280;54767;53.800;15.956;2023-03-23T11:33:55;99047.37;;;12.07;82.43
67987;BME280;54767;53.800;15.956;2023-03-23T11:36:35;99045.11;;;12.13;82.05
67987;BME280;54767;53.800;15.956;2023-03-23T11:41:47;99041.74;;;12.22;81.99
67987;BME280;54767;53.800;15.956;2023-03-23T11:44:15;99043.72;;;12.27;81.83
67987;BME280;54767;53.800;15.956;2023-03-23T11:47:05;99039.67;;;12.35;81.91
67987;BME280;54767;53.800;15.956;2023-03-23T11:52:44;99043.77;;;12.47;81.32
67987;BME280;54767;53.800;15.956;2023-03-23T11:58:15;99051.27;;;12.49;80.40
67987;BME280;54767;53.800;15.956;2023-03-23T12:00:51;99056.23;;;12.47;80.17
67987;BME280;54767;53.800;15.956;2023-03-23T12:06:11;99058.75;;;12.44;79.86
67987;BME280;54767;53.800;15.956;2023-03-23T12:17:15;99062.16;;;12.40;79.51
67987;BME280;54767;53.800;15.956;2023-03-23T12:44:52;99057.12;;;12.74;78.86
67987;BME280;54767;53.800;15.956;2023-03-23T12:50:33;99063.70;;;12.71;78.34
67987;BME280;54767;53.800;15.956;2023-03-23T12:55:45;99058.36;;;12.67;78.31
67987;BME280;54767;53.800;15.956;2023-03-23T12:58:20;99064.35;;;12.66;78.15
67987;BME280;54767;53.800;15.956;2023-03-23T13:03:33;99057.11;;;12.68;78.03
67987;BME280;54767;53.800;15.956;2023-03-23T13:06:27;99051.45;;;12.70;77.97
67987;BME280;54767;53.800;15.956;2023-03-23T13:09:14;99056.17;;;12.70;77.87
67987;BME280;54767;53.800;15.956;2023-03-23T13:11:44;99054.56;;;12.71;77.77
67987;BME280;54767;53.800;15.956;2023-03-23T13:20:14;99058.17;;;12.68;77.91
67987;BME280;54767;53.800;15.956;2023-03-23T13:22:54;99050.39;;;12.69;77.94
67987;BME280;54767;53.800;15.956;2023-03-23T13:28:15;99038.84;;;12.75;77.95
67987;BME280;54767;53.800;15.956;2023-03-23T13:30:54;99040.86;;;12.78;77.85
67987;BME280;54767;53.800;15.956;2023-03-23T13:33:22;99034.10;;;12.81;77.84
67987;BME280;54767;53.800;15.956;2023-03-23T13:35:50;99037.23;;;12.83;77.75
67987;BME280;54767;53.800;15.956;2023-03-23T13:38:26;99036.66;;;12.84;77.74
67987;BME280;54767;53.800;15.956;2023-03-23T13:41:05;99036.48;;;12.84;77.73
67987;BME280;54767;53.800;15.956;2023-03-23T13:43:34;99038.77;;;12.84;77.57
67987;BME280;54767;53.800;15.956;2023-03-23T13:46:12;99037.56;;;12.84;77.54
67987;BME280;54767;53.800;15.956;2023-03-23T13:49:02;99041.40;;;12.85;77.64
67987;BME280;54767;53.800;15.956;2023-03-23T13:54:15;99046.47;;;12.85;77.31
67987;BME280;54767;53.800;15.956;2023-03-23T13:57:00;99041.80;;;12.83;77.31
67987;BME280;54767;53.800;15.956;2023-03-23T14:02:21;99049.92;;;12.80;77.37
67987;BME280;54767;53.800;15.956;2023-03-23T14:04:46;99043.77;;;12.81;77.47
67987;BME280;54767;53.800;15.956;2023-03-23T14:07:17;99044.45;;;12.82;77.49
67987;BME280;54767;53.800;15.956;2023-03-23T14:09:46;99044.60;;;12.83;77.40
67987;BME280;54767;53.800;15.956;2023-03-23T14:12:18;99043.23;;;12.82;77.26
67987;BME280;54767;53.800;15.956;2023-03-23T14:14:49;99038.80;;;12.83;77.27
67987;BME280;54767;53.800;15.956;2023-03-23T14:36:42;99045.48;;;13.47;76.01
67987;BME280;54767;53.800;15.956;2023-03-23T14:39:23;99040.92;;;13.47;76.05
67987;BME280;54767;53.800;15.956;2023-03-23T14:41:53;99038.11;;;13.41;76.23
67987;BME280;54767;53.800;15.956;2023-03-23T14:44:42;99036.52;;;13.36;76.52
67987;BME280;54767;53.800;15.956;2023-03-23T14:47:20;99034.32;;;13.32;76.74
67987;BME280;54767;53.800;15.956;2023-03-23T14:49:53;99030.50;;;13.31;77.08
67987;BME280;54767;53.800;15.956;2023-03-23T14:52:24;99026.29;;;13.30;76.75
67987;BME280;54767;53.800;15.956;2023-03-23T14:54:51;99020.73;;;13.28;76.81
67987;BME280;54767;53.800;15.956;2023-03-23T14:59:52;99049.29;;;13.18;76.68
67987;BME280;54767;53.800;15.956;2023-03-23T15:02:24;99103.27;;;13.09;76.87
67987;BME280;54767;53.800;15.956;2023-03-23T15:04:56;99119.71;;;12.91;75.44
67987;BME280;54767;53.800;15.956;2023-03-23T15:07:31;99131.70;;;12.68;75.00
67987;BME280;54767;53.800;15.956;2023-03-23T15:10:00;99130.02;;;12.50;75.15
67987;BME280;54767;53.800;15.956;2023-03-23T15:12:29;99141.13;;;12.33;74.96
67987;BME280;54767;53.800;15.956;2023-03-23T15:15:00;99149.14;;;12.11;74.89
67987;BME280;54767;53.800;15.956;2023-03-23T15:17:31;99148.63;;;11.94;75.12
67987;BME280;54767;53.800;15.956;2023-03-23T15:20:09;99141.23;;;11.78;75.31
67987;BME280;54767;53.800;15.956;2023-03-23T15:22:45;99134.98;;;11.66;75.56
67987;BME280;54767;53.800;15.956;2023-03-23T15:28:39;99106.20;;;11.51;76.09
67987;BME280;54767;53.800;15.956;2023-03-23T15:31:06;99098.12;;;11.43;76.31
67987;BME280;54767;53.800;15.956;2023-03-23T15:33:38;99106.47;;;11.37;76.37